sensor_id;sensor_type;location;lat;lon;timestamp;P1;durP1;ratioP1;P2;durP2;ratioP2
78885;SDS011;68269;52.514;5.722;2023-05-07T00:01:24;10.20;;;4.63;;
78885;SDS011;68269;52.514;5.722;2023-05-07T00:03:53;10.07;;;3.80;;
78885;SDS011;68269;52.514;5.722;2023-05-07T00:06:22;10.93;;;3.90;;
78885;SDS011;68269;52.514;5.722;2023-05-07T00:08:54;11.50;;;4.35;;
78885;SDS011;68269;52.514;5.722;2023-05-07T00:11:24;12.18;;;4.15;;
78885;SDS011;68269;52.514;5.722;2023-05-07T00:13:54;10.13;;;3.60;;
78885;SDS011;68269;52.514;5.722;2023-05-07T00:16:26;9.60;;;3.28;;
78885;SDS011;68269;52.514;5.722;2023-05-07T00:18:55;9.82;;;4.00;;
78885;SDS011;68269;52.514;5.722;2023-05-07T00:21:24;10.95;;;4.18;;
78885;SDS011;68269;52.514;5.722;2023-05-07T00:23:54;9.73;;;3.63;;
78885;SDS011;68269;52.514;5.722;2023-05-07T00:26:23;9.25;;;3.90;;
78885;SDS011;68269;52.514;5.722;2023-05-07T00:28:53;8.90;;;3.75;;
78885;SDS011;68269;52.514;5.722;2023-05-07T00:31:22;9.23;;;3.75;;
78885;SDS011;68269;52.514;5.722;2023-05-07T00:33:54;9.25;;;3.80;;
78885;SDS011;68269;52.514;5.722;2023-05-07T00:36:23;9.70;;;3.85;;
78885;SDS011;68269;52.514;5.722;2023-05-07T00:38:53;9.77;;;4.10;;
78885;SDS011;68269;52.514;5.722;2023-05-07T00:41:23;7.55;;;3.10;;
78885;SDS011;68269;52.514;5.722;2023-05-07T00:43:52;9.98;;;3.95;;
78885;SDS011;68269;52.514;5.722;2023-05-07T00:46:22;10.20;;;3.53;;
78885;SDS011;68269;52.514;5.722;2023-05-07T00:48:54;8.48;;;3.80;;
78885;SDS011;68269;52.514;5.722;2023-05-07T00:51:23;10.55;;;3.55;;
78885;SDS011;68269;52.514;5.722;2023-05-07T00:53:55;8.57;;;3.58;;
78885;SDS011;68269;52.514;5.722;2023-05-07T00:56:24;9.05;;;4.03;;
78885;SDS011;68269;52.514;5.722;2023-05-07T00:58:53;8.27;;;3.60;;
78885;SDS011;68269;52.514;5.722;2023-05-07T01:01:23;8.23;;;3.72;;
78885;SDS011;68269;52.514;5.722;2023-05-07T01:03:55;9.23;;;4.05;;
78885;SDS011;68269;52.514;5.722;2023-05-07T01:06:25;8.40;;;3.92;;
78885;SDS011;68269;52.514;5.722;2023-05-07T01:08:55;10.77;;;3.90;;
78885;SDS011;68269;52.514;5.722;2023-05-07T01:11:25;9.07;;;3.78;;
78885;SDS011;68269;52.514;5.722;2023-05-07T01:13:54;9.75;;;4.05;;
78885;SDS011;68269;52.514;5.722;2023-05-07T01:16:25;9.20;;;3.72;;
78885;SDS011;68269;52.514;5.722;2023-05-07T01:18:57;9.40;;;3.88;;
78885;SDS011;68269;52.514;5.722;2023-05-07T01:21:26;9.70;;;3.63;;
78885;SDS011;68269;52.514;5.722;2023-05-07T01:24:05;9.73;;;4.07;;
78885;SDS011;68269;52.514;5.722;2023-05-07T01:26:35;9.85;;;4.18;;
78885;SDS011;68269;52.514;5.722;2023-05-07T01:29:05;8.88;;;3.78;;
78885;SDS011;68269;52.514;5.722;2023-05-07T01:31:35;11.23;;;4.82;;
78885;SDS011;68269;52.514;5.722;2023-05-07T01:34:05;10.68;;;4.50;;
78885;SDS011;68269;52.514;5.722;2023-05-07T01:36:37;10.20;;;4.25;;
78885;SDS011;68269;52.514;5.722;2023-05-07T01:39:10;10.20;;;3.92;;
78885;SDS011;68269;52.514;5.722;2023-05-07T01:41:41;9.77;;;4.35;;
78885;SDS011;68269;52.514;5.722;2023-05-07T01:44:12;9.48;;;4.10;;
78885;SDS011;68269;52.514;5.722;2023-05-07T01:46:43;9.85;;;3.67;;
78885;SDS011;68269;52.514;5.722;2023-05-07T01:49:13;8.38;;;3.90;;
78885;SDS011;68269;52.514;5.722;2023-05-07T01:51:43;9.70;;;4.15;;
78885;SDS011;68269;52.514;5.722;2023-05-07T01:54:15;9.13;;;4.43;;
78885;SDS011;68269;52.514;5.722;2023-05-07T01:56:46;9.35;;;4.13;;
78885;SDS011;68269;52.514;5.722;2023-05-07T01:59:16;9.80;;;4.07;;
78885;SDS011;68269;52.514;5.722;2023-05-07T02:01:45;10.30;;;4.35;;
78885;SDS011;68269;52.514;5.722;2023-05-07T02:04:15;13.68;;;5.03;;
78885;SDS011;68269;52.514;5.722;2023-05-07T02:06:44;11.77;;;4.60;;
78885;SDS011;68269;52.514;5.722;2023-05-07T02:09:17;10.63;;;4.75;;
78885;SDS011;68269;52.514;5.722;2023-05-07T02:11:48;10.93;;;5.00;;
78885;SDS011;68269;52.514;5.722;2023-05-07T02:14:19;10.27;;;4.85;;
78885;SDS011;68269;52.514;5.722;2023-05-07T02:16:48;10.70;;;5.35;;
78885;SDS011;68269;52.514;5.722;2023-05-07T02:19:18;11.30;;;5.13;;
78885;SDS011;68269;52.514;5.722;2023-05-07T02:21:47;11.27;;;5.18;;
78885;SDS011;68269;52.514;5.722;2023-05-07T02:24:19;10.68;;;5.18;;
78885;SDS011;68269;52.514;5.722;2023-05-07T02:26:48;14.50;;;5.13;;
78885;SDS011;68269;52.514;5.722;2023-05-07T02:29:18;13.90;;;6.00;;
78885;SDS011;68269;52.514;5.722;2023-05-07T02:31:47;13.48;;;5.93;;
78885;SDS011;68269;52.514;5.722;2023-05-07T02:34:18;16.23;;;5.60;;
78885;SDS011;68269;52.514;5.722;2023-05-07T02:36:48;13.13;;;5.78;;
78885;SDS011;68269;52.514;5.722;2023-05-07T02:39:23;13.65;;;6.10;;
78885;SDS011;68269;52.514;5.722;2023-05-07T02:41:53;14.93;;;5.97;;
78885;SDS011;68269;52.514;5.722;2023-05-07T02:44:22;13.63;;;6.00;;
78885;SDS011;68269;52.514;5.722;2023-05-07T02:46:51;12.43;;;5.95;;
78885;SDS011;68269;52.514;5.722;2023-05-07T02:49:21;13.63;;;6.25;;
78885;SDS011;68269;52.514;5.722;2023-05-07T02:51:51;13.77;;;6.43;;
78885;SDS011;68269;52.514;5.722;2023-05-07T02:54:25;13.15;;;6.13;;
78885;SDS011;68269;52.514;5.722;2023-05-07T02:56:55;13.73;;;6.88;;
78885;SDS011;68269;52.514;5.722;2023-05-07T02:59:24;11.63;;;6.00;;
78885;SDS011;68269;52.514;5.722;2023-05-07T03:01:53;15.50;;;6.70;;
78885;SDS011;68269;52.514;5.722;2023-05-07T03:04:23;14.07;;;7.30;;
78885;SDS011;68269;52.514;5.722;2023-05-07T03:06:52;13.95;;;6.72;;
78885;SDS011;68269;52.514;5.722;2023-05-07T03:09:24;15.48;;;7.22;;
78885;SDS011;68269;52.514;5.722;2023-05-07T03:11:54;15.55;;;6.75;;
78885;SDS011;68269;52.514;5.722;2023-05-07T03:14:24;13.88;;;6.95;;
78885;SDS011;68269;52.514;5.722;2023-05-07T03:16:54;13.75;;;7.10;;
78885;SDS011;68269;52.514;5.722;2023-05-07T03:19:23;15.75;;;7.78;;
78885;SDS011;68269;52.514;5.722;2023-05-07T03:21:52;15.85;;;7.45;;
78885;SDS011;68269;52.514;5.722;2023-05-07T03:24:21;17.95;;;9.40;;
78885;SDS011;68269;52.514;5.722;2023-05-07T03:26:53;16.55;;;8.07;;
78885;SDS011;68269;52.514;5.722;2023-05-07T03:29:23;16.05;;;8.38;;
78885;SDS011;68269;52.514;5.722;2023-05-07T03:31:52;17.35;;;8.40;;
78885;SDS011;68269;52.514;5.722;2023-05-07T03:34:22;18.08;;;8.68;;
78885;SDS011;68269;52.514;5.722;2023-05-07T03:36:51;16.88;;;8.40;;
78885;SDS011;68269;52.514;5.722;2023-05-07T03:39:25;17.55;;;8.90;;
78885;SDS011;68269;52.514;5.722;2023-05-07T03:41:54;17.35;;;9.05;;
78885;SDS011;68269;52.514;5.722;2023-05-07T03:44:23;18.08;;;8.88;;
78885;SDS011;68269;52.514;5.722;2023-05-07T03:46:53;17.33;;;9.48;;
78885;SDS011;68269;52.514;5.722;2023-05-07T03:49:22;18.05;;;8.93;;
78885;SDS011;68269;52.514;5.722;2023-05-07T03:51:51;17.02;;;9.02;;
78885;SDS011;68269;52.514;5.722;2023-05-07T03:54:21;20.35;;;8.95;;
78885;SDS011;68269;52.514;5.722;2023-05-07T03:56:53;17.20;;;8.82;;
78885;SDS011;68269;52.514;5.722;2023-05-07T03:59:22;19.88;;;9.57;;
78885;SDS011;68269;52.514;5.722;2023-05-07T04:01:52;16.73;;;8.52;;
78885;SDS011;68269;52.514;5.722;2023-05-07T04:04:23;16.58;;;9.07;;
78885;SDS011;68269;52.514;5.722;2023-05-07T04:06:52;17.77;;;8.27;;
78885;SDS011;68269;52.514;5.722;2023-05-07T04:09:22;18.27;;;9.40;;
78885;SDS011;68269;52.514;5.722;2023-05-07T04:11:54;17.20;;;8.68;;
78885;SDS011;68269;52.514;5.722;2023-05-07T04:14:23;16.45;;;8.45;;
78885;SDS011;68269;52.514;5.722;2023-05-07T04:16:53;16.58;;;8.48;;
78885;SDS011;68269;52.514;5.722;2023-05-07T04:19:22;16.50;;;8.27;;
78885;SDS011;68269;52.514;5.722;2023-05-07T04:21:53;18.90;;;8.30;;
78885;SDS011;68269;52.514;5.722;2023-05-07T04:24:22;16.73;;;7.97;;
78885;SDS011;68269;52.514;5.722;2023-05-07T04:26:55;14.60;;;7.22;;
78885;SDS011;68269;52.514;5.722;2023-05-07T04:29:24;16.02;;;7.07;;
78885;SDS011;68269;52.514;5.722;2023-05-07T04:31:54;15.98;;;7.45;;
78885;SDS011;68269;52.514;5.722;2023-05-07T04:34:25;19.20;;;7.30;;
78885;SDS011;68269;52.514;5.722;2023-05-07T04:36:57;15.15;;;7.38;;
78885;SDS011;68269;52.514;5.722;2023-05-07T04:39:27;17.15;;;7.88;;
78885;SDS011;68269;52.514;5.722;2023-05-07T04:41:59;14.10;;;6.65;;
78885;SDS011;68269;52.514;5.722;2023-05-07T04:44:29;20.27;;;8.27;;
78885;SDS011;68269;52.514;5.722;2023-05-07T04:47:00;16.65;;;6.85;;
78885;SDS011;68269;52.514;5.722;2023-05-07T04:49:29;18.35;;;8.52;;
78885;SDS011;68269;52.514;5.722;2023-05-07T04:51:58;17.52;;;8.05;;
78885;SDS011;68269;52.514;5.722;2023-05-07T04:54:29;18.15;;;7.50;;
78885;SDS011;68269;52.514;5.722;2023-05-07T04:57:02;15.10;;;6.93;;
78885;SDS011;68269;52.514;5.722;2023-05-07T04:59:33;16.00;;;7.38;;
78885;SDS011;68269;52.514;5.722;2023-05-07T05:02:02;17.08;;;7.78;;
78885;SDS011;68269;52.514;5.722;2023-05-07T05:04:33;15.93;;;7.43;;
78885;SDS011;68269;52.514;5.722;2023-05-07T05:07:02;18.58;;;7.30;;
78885;SDS011;68269;52.514;5.722;2023-05-07T05:09:31;14.77;;;7.50;;
78885;SDS011;68269;52.514;5.722;2023-05-07T05:12:04;18.85;;;7.95;;
78885;SDS011;68269;52.514;5.722;2023-05-07T05:14:35;16.75;;;8.00;;
78885;SDS011;68269;52.514;5.722;2023-05-07T05:17:06;18.05;;;7.72;;
78885;SDS011;68269;52.514;5.722;2023-05-07T05:19:36;18.90;;;7.35;;
78885;SDS011;68269;52.514;5.722;2023-05-07T05:22:05;17.00;;;7.68;;
78885;SDS011;68269;52.514;5.722;2023-05-07T05:24:34;18.92;;;7.80;;
78885;SDS011;68269;52.514;5.722;2023-05-07T05:27:06;19.33;;;9.20;;
78885;SDS011;68269;52.514;5.722;2023-05-07T05:29:36;17.17;;;7.93;;
78885;SDS011;68269;52.514;5.722;2023-05-07T05:32:05;20.48;;;9.05;;
78885;SDS011;68269;52.514;5.722;2023-05-07T05:34:35;19.98;;;8.80;;
78885;SDS011;68269;52.514;5.722;2023-05-07T05:37:05;22.05;;;8.82;;
78885;SDS011;68269;52.514;5.722;2023-05-07T05:39:36;22.55;;;8.27;;
78885;SDS011;68269;52.514;5.722;2023-05-07T05:42:09;16.42;;;7.40;;
78885;SDS011;68269;52.514;5.722;2023-05-07T05:44:39;18.50;;;7.35;;
78885;SDS011;68269;52.514;5.722;2023-05-07T05:47:08;17.25;;;8.27;;
78885;SDS011;68269;52.514;5.722;2023-05-07T05:49:38;19.75;;;8.57;;
78885;SDS011;68269;52.514;5.722;2023-05-07T05:52:09;19.27;;;9.02;;
78885;SDS011;68269;52.514;5.722;2023-05-07T05:54:40;21.55;;;8.73;;
78885;SDS011;68269;52.514;5.722;2023-05-07T05:57:12;19.05;;;8.57;;
78885;SDS011;68269;52.514;5.722;2023-05-07T05:59:43;18.58;;;8.85;;
78885;SDS011;68269;52.514;5.722;2023-05-07T06:02:13;19.38;;;9.05;;
78885;SDS011;68269;52.514;5.722;2023-05-07T06:04:42;20.45;;;8.25;;
78885;SDS011;68269;52.514;5.722;2023-05-07T06:07:16;18.75;;;8.68;;
78885;SDS011;68269;52.514;5.722;2023-05-07T06:09:45;18.38;;;8.15;;
78885;SDS011;68269;52.514;5.722;2023-05-07T06:12:17;21.55;;;9.13;;
78885;SDS011;68269;52.514;5.722;2023-05-07T06:14:47;20.77;;;8.77;;
78885;SDS011;68269;52.514;5.722;2023-05-07T06:17:17;18.98;;;9.35;;
78885;SDS011;68269;52.514;5.722;2023-05-07T06:19:47;19.48;;;8.70;;
78885;SDS011;68269;52.514;5.722;2023-05-07T06:22:18;21.73;;;9.40;;
78885;SDS011;68269;52.514;5.722;2023-05-07T06:24:47;20.83;;;9.25;;
78885;SDS011;68269;52.514;5.722;2023-05-07T06:27:19;24.52;;;9.40;;
78885;SDS011;68269;52.514;5.722;2023-05-07T06:29:48;22.20;;;10.38;;
78885;SDS011;68269;52.514;5.722;2023-05-07T06:32:18;20.02;;;9.38;;
78885;SDS011;68269;52.514;5.722;2023-05-07T06:34:48;18.45;;;8.18;;
78885;SDS011;68269;52.514;5.722;2023-05-07T06:37:18;20.08;;;8.43;;
78885;SDS011;68269;52.514;5.722;2023-05-07T06:40:01;19.92;;;8.57;;
78885;SDS011;68269;52.514;5.722;2023-05-07T06:42:35;20.35;;;8.38;;
78885;SDS011;68269;52.514;5.722;2023-05-07T06:45:42;18.80;;;9.10;;
78885;SDS011;68269;52.514;5.722;2023-05-07T06:48:12;20.60;;;9.07;;
78885;SDS011;68269;52.514;5.722;2023-05-07T06:50:51;19.42;;;9.20;;
78885;SDS011;68269;52.514;5.722;2023-05-07T06:53:22;19.65;;;9.13;;
78885;SDS011;68269;52.514;5.722;2023-05-07T06:55:54;19.75;;;8.88;;
78885;SDS011;68269;52.514;5.722;2023-05-07T06:58:27;24.67;;;9.00;;
78885;SDS011;68269;52.514;5.722;2023-05-07T07:00:56;19.67;;;8.85;;
78885;SDS011;68269;52.514;5.722;2023-05-07T07:03:26;21.13;;;9.50;;
78885;SDS011;68269;52.514;5.722;2023-05-07T07:05:55;20.23;;;8.40;;
78885;SDS011;68269;52.514;5.722;2023-05-07T07:08:25;19.52;;;9.02;;
78885;SDS011;68269;52.514;5.722;2023-05-07T07:10:55;20.60;;;8.75;;
78885;SDS011;68269;52.514;5.722;2023-05-07T07:13:27;19.40;;;9.02;;
78885;SDS011;68269;52.514;5.722;2023-05-07T07:15:56;18.42;;;8.50;;
78885;SDS011;68269;52.514;5.722;2023-05-07T07:18:26;24.48;;;9.70;;
78885;SDS011;68269;52.514;5.722;2023-05-07T07:20:55;23.88;;;10.05;;
78885;SDS011;68269;52.514;5.722;2023-05-07T07:23:25;19.77;;;9.40;;
78885;SDS011;68269;52.514;5.722;2023-05-07T07:25:54;18.90;;;9.20;;
78885;SDS011;68269;52.514;5.722;2023-05-07T07:28:26;19.65;;;9.00;;
78885;SDS011;68269;52.514;5.722;2023-05-07T07:30:56;19.50;;;8.55;;
78885;SDS011;68269;52.514;5.722;2023-05-07T07:33:25;18.50;;;8.25;;
78885;SDS011;68269;52.514;5.722;2023-05-07T07:35:56;20.08;;;8.32;;
78885;SDS011;68269;52.514;5.722;2023-05-07T07:38:25;20.85;;;8.70;;
78885;SDS011;68269;52.514;5.722;2023-05-07T07:40:55;18.90;;;8.60;;
78885;SDS011;68269;52.514;5.722;2023-05-07T07:43:27;21.63;;;9.75;;
78885;SDS011;68269;52.514;5.722;2023-05-07T07:45:56;23.30;;;9.20;;
78885;SDS011;68269;52.514;5.722;2023-05-07T07:48:26;21.95;;;9.73;;
78885;SDS011;68269;52.514;5.722;2023-05-07T07:50:56;22.63;;;9.48;;
78885;SDS011;68269;52.514;5.722;2023-05-07T07:53:25;22.88;;;10.07;;
78885;SDS011;68269;52.514;5.722;2023-05-07T07:55:55;21.70;;;9.25;;
78885;SDS011;68269;52.514;5.722;2023-05-07T07:58:29;20.83;;;8.77;;
78885;SDS011;68269;52.514;5.722;2023-05-07T08:00:59;24.80;;;10.82;;
78885;SDS011;68269;52.514;5.722;2023-05-07T08:03:28;23.10;;;10.18;;
78885;SDS011;68269;52.514;5.722;2023-05-07T08:05:58;25.40;;;10.50;;
78885;SDS011;68269;52.514;5.722;2023-05-07T08:08:29;19.83;;;9.68;;
78885;SDS011;68269;52.514;5.722;2023-05-07T08:10:58;21.23;;;10.05;;
78885;SDS011;68269;52.514;5.722;2023-05-07T08:13:34;22.65;;;8.98;;
78885;SDS011;68269;52.514;5.722;2023-05-07T08:16:03;24.92;;;10.18;;
78885;SDS011;68269;52.514;5.722;2023-05-07T08:18:35;19.13;;;9.52;;
78885;SDS011;68269;52.514;5.722;2023-05-07T08:21:05;20.35;;;9.65;;
78885;SDS011;68269;52.514;5.722;2023-05-07T08:23:35;19.67;;;9.00;;
78885;SDS011;68269;52.514;5.722;2023-05-07T08:26:04;18.55;;;9.40;;
78885;SDS011;68269;52.514;5.722;2023-05-07T08:28:38;21.48;;;9.52;;
78885;SDS011;68269;52.514;5.722;2023-05-07T08:31:08;21.00;;;9.43;;
78885;SDS011;68269;52.514;5.722;2023-05-07T08:33:39;18.00;;;8.82;;
78885;SDS011;68269;52.514;5.722;2023-05-07T08:36:09;22.88;;;9.75;;
78885;SDS011;68269;52.514;5.722;2023-05-07T08:38:38;21.65;;;10.52;;
78885;SDS011;68269;52.514;5.722;2023-05-07T08:41:11;19.10;;;8.73;;
78885;SDS011;68269;52.514;5.722;2023-05-07T08:43:47;19.80;;;8.75;;
78885;SDS011;68269;52.514;5.722;2023-05-07T08:46:18;21.35;;;8.98;;
78885;SDS011;68269;52.514;5.722;2023-05-07T08:48:53;19.65;;;8.45;;
78885;SDS011;68269;52.514;5.722;2023-05-07T08:51:22;20.95;;;8.75;;
78885;SDS011;68269;52.514;5.722;2023-05-07T08:53:53;22.40;;;9.30;;
78885;SDS011;68269;52.514;5.722;2023-05-07T08:56:28;21.42;;;9.98;;
78885;SDS011;68269;52.514;5.722;2023-05-07T08:59:00;18.50;;;9.20;;
78885;SDS011;68269;52.514;5.722;2023-05-07T09:01:29;21.98;;;8.88;;
78885;SDS011;68269;52.514;5.722;2023-05-07T09:04:01;22.67;;;9.38;;
78885;SDS011;68269;52.514;5.722;2023-05-07T09:06:32;20.98;;;9.02;;
78885;SDS011;68269;52.514;5.722;2023-05-07T09:09:02;21.35;;;9.30;;
78885;SDS011;68269;52.514;5.722;2023-05-07T09:11:33;22.05;;;9.80;;
78885;SDS011;68269;52.514;5.722;2023-05-07T09:14:04;18.88;;;9.05;;
78885;SDS011;68269;52.514;5.722;2023-05-07T09:16:38;18.88;;;9.45;;
78885;SDS011;68269;52.514;5.722;2023-05-07T09:19:08;20.67;;;8.63;;
78885;SDS011;68269;52.514;5.722;2023-05-07T09:21:42;18.27;;;8.77;;
78885;SDS011;68269;52.514;5.722;2023-05-07T09:24:14;18.35;;;8.15;;
78885;SDS011;68269;52.514;5.722;2023-05-07T09:26:44;21.73;;;9.55;;
78885;SDS011;68269;52.514;5.722;2023-05-07T09:29:17;23.02;;;9.60;;
78885;SDS011;68269;52.514;5.722;2023-05-07T09:31:47;18.65;;;9.00;;
78885;SDS011;68269;52.514;5.722;2023-05-07T09:34:17;20.48;;;9.25;;
78885;SDS011;68269;52.514;5.722;2023-05-07T09:36:47;20.20;;;8.43;;
78885;SDS011;68269;52.514;5.722;2023-05-07T09:39:17;20.05;;;8.48;;
78885;SDS011;68269;52.514;5.722;2023-05-07T09:41:46;22.35;;;8.80;;
78885;SDS011;68269;52.514;5.722;2023-05-07T09:44:27;20.02;;;9.02;;
78885;SDS011;68269;52.514;5.722;2023-05-07T09:46:56;22.70;;;10.00;;
78885;SDS011;68269;52.514;5.722;2023-05-07T09:49:35;18.50;;;9.13;;
78885;SDS011;68269;52.514;5.722;2023-05-07T09:52:09;21.58;;;9.90;;
78885;SDS011;68269;52.514;5.722;2023-05-07T09:54:45;23.50;;;10.55;;
78885;SDS011;68269;52.514;5.722;2023-05-07T09:57:19;25.17;;;9.95;;
78885;SDS011;68269;52.514;5.722;2023-05-07T09:59:56;23.20;;;10.05;;
78885;SDS011;68269;52.514;5.722;2023-05-07T10:02:33;20.70;;;9.52;;
78885;SDS011;68269;52.514;5.722;2023-05-07T10:05:05;22.33;;;9.52;;
78885;SDS011;68269;52.514;5.722;2023-05-07T10:07:35;22.75;;;8.93;;
78885;SDS011;68269;52.514;5.722;2023-05-07T10:10:08;22.70;;;9.20;;
78885;SDS011;68269;52.514;5.722;2023-05-07T10:12:42;24.25;;;9.95;;
78885;SDS011;68269;52.514;5.722;2023-05-07T10:15:20;19.85;;;8.68;;
78885;SDS011;68269;52.514;5.722;2023-05-07T10:17:54;18.38;;;8.40;;
78885;SDS011;68269;52.514;5.722;2023-05-07T10:20:24;20.73;;;8.68;;
78885;SDS011;68269;52.514;5.722;2023-05-07T10:22:56;14.98;;;6.70;;
78885;SDS011;68269;52.514;5.722;2023-05-07T10:25:34;17.80;;;7.75;;
78885;SDS011;68269;52.514;5.722;2023-05-07T10:28:10;17.75;;;7.72;;
78885;SDS011;68269;52.514;5.722;2023-05-07T10:30:50;18.83;;;8.07;;
78885;SDS011;68269;52.514;5.722;2023-05-07T10:33:36;16.45;;;6.95;;
78885;SDS011;68269;52.514;5.722;2023-05-07T10:36:08;19.17;;;7.85;;
78885;SDS011;68269;52.514;5.722;2023-05-07T10:38:37;16.85;;;7.15;;
78885;SDS011;68269;52.514;5.722;2023-05-07T10:41:08;17.65;;;7.95;;
78885;SDS011;68269;52.514;5.722;2023-05-07T10:43:41;17.55;;;8.27;;
78885;SDS011;68269;52.514;5.722;2023-05-07T10:46:20;19.48;;;8.45;;
78885;SDS011;68269;52.514;5.722;2023-05-07T10:49:09;16.98;;;7.45;;
78885;SDS011;68269;52.514;5.722;2023-05-07T10:52:13;16.52;;;6.53;;
78885;SDS011;68269;52.514;5.722;2023-05-07T10:58:02;17.65;;;8.00;;
78885;SDS011;68269;52.514;5.722;2023-05-07T11:00:56;16.98;;;7.40;;
78885;SDS011;68269;52.514;5.722;2023-05-07T11:03:34;16.38;;;7.32;;
78885;SDS011;68269;52.514;5.722;2023-05-07T11:06:10;17.70;;;6.93;;
78885;SDS011;68269;52.514;5.722;2023-05-07T11:09:02;15.65;;;6.57;;
78885;SDS011;68269;52.514;5.722;2023-05-07T11:11:54;14.45;;;5.80;;
78885;SDS011;68269;52.514;5.722;2023-05-07T11:14:43;16.17;;;7.00;;
78885;SDS011;68269;52.514;5.722;2023-05-07T11:17:24;16.90;;;6.63;;
78885;SDS011;68269;52.514;5.722;2023-05-07T11:20:05;17.63;;;6.85;;
78885;SDS011;68269;52.514;5.722;2023-05-07T11:22:44;13.77;;;5.88;;
78885;SDS011;68269;52.514;5.722;2023-05-07T11:25:19;15.13;;;6.68;;
78885;SDS011;68269;52.514;5.722;2023-05-07T11:27:56;18.45;;;7.80;;
78885;SDS011;68269;52.514;5.722;2023-05-07T11:30:36;16.08;;;7.10;;
78885;SDS011;68269;52.514;5.722;2023-05-07T11:33:09;17.38;;;7.15;;
78885;SDS011;68269;52.514;5.722;2023-05-07T11:35:43;17.25;;;7.25;;
78885;SDS011;68269;52.514;5.722;2023-05-07T11:38:16;18.42;;;7.38;;
78885;SDS011;68269;52.514;5.722;2023-05-07T11:40:50;16.40;;;7.60;;
78885;SDS011;68269;52.514;5.722;2023-05-07T11:43:19;16.52;;;7.70;;
78885;SDS011;68269;52.514;5.722;2023-05-07T11:45:49;16.80;;;7.35;;
78885;SDS011;68269;52.514;5.722;2023-05-07T11:48:18;17.60;;;6.95;;
78885;SDS011;68269;52.514;5.722;2023-05-07T11:50:53;18.90;;;7.88;;
78885;SDS011;68269;52.514;5.722;2023-05-07T11:53:35;20.70;;;9.05;;
78885;SDS011;68269;52.514;5.722;2023-05-07T11:56:06;19.15;;;7.05;;
78885;SDS011;68269;52.514;5.722;2023-05-07T11:58:35;21.83;;;8.50;;
78885;SDS011;68269;52.514;5.722;2023-05-07T12:01:06;19.08;;;8.05;;
78885;SDS011;68269;52.514;5.722;2023-05-07T12:03:37;17.88;;;7.93;;
78885;SDS011;68269;52.514;5.722;2023-05-07T12:06:11;15.43;;;7.68;;
78885;SDS011;68269;52.514;5.722;2023-05-07T12:11:13;17.88;;;7.45;;
78885;SDS011;68269;52.514;5.722;2023-05-07T12:13:44;17.13;;;7.15;;
78885;SDS011;68269;52.514;5.722;2023-05-07T12:16:13;17.10;;;7.60;;
78885;SDS011;68269;52.514;5.722;2023-05-07T12:18:43;17.08;;;7.43;;
78885;SDS011;68269;52.514;5.722;2023-05-07T12:21:16;15.70;;;6.65;;
78885;SDS011;68269;52.514;5.722;2023-05-07T12:23:45;16.48;;;7.15;;
78885;SDS011;68269;52.514;5.722;2023-05-07T12:26:15;17.48;;;8.00;;
78885;SDS011;68269;52.514;5.722;2023-05-07T12:28:44;17.05;;;7.85;;
78885;SDS011;68269;52.514;5.722;2023-05-07T12:31:15;17.27;;;7.38;;
78885;SDS011;68269;52.514;5.722;2023-05-07T12:33:47;20.95;;;9.02;;
78885;SDS011;68269;52.514;5.722;2023-05-07T12:36:19;22.67;;;9.35;;
78885;SDS011;68269;52.514;5.722;2023-05-07T12:38:50;18.27;;;8.10;;
78885;SDS011;68269;52.514;5.722;2023-05-07T12:41:19;16.58;;;7.13;;
78885;SDS011;68269;52.514;5.722;2023-05-07T12:43:52;16.95;;;6.72;;
78885;SDS011;68269;52.514;5.722;2023-05-07T12:46:25;14.07;;;6.22;;
78885;SDS011;68269;52.514;5.722;2023-05-07T12:48:54;16.95;;;7.25;;
78885;SDS011;68269;52.514;5.722;2023-05-07T12:51:26;18.05;;;7.43;;
78885;SDS011;68269;52.514;5.722;2023-05-07T12:53:56;17.90;;;7.32;;
78885;SDS011;68269;52.514;5.722;2023-05-07T12:56:26;14.90;;;6.57;;
78885;SDS011;68269;52.514;5.722;2023-05-07T12:58:57;13.82;;;5.53;;
78885;SDS011;68269;52.514;5.722;2023-05-07T13:01:28;16.42;;;6.43;;
78885;SDS011;68269;52.514;5.722;2023-05-07T13:04:00;17.38;;;5.35;;
78885;SDS011;68269;52.514;5.722;2023-05-07T13:06:32;13.73;;;6.47;;
78885;SDS011;68269;52.514;5.722;2023-05-07T13:09:01;16.25;;;7.45;;
78885;SDS011;68269;52.514;5.722;2023-05-07T13:11:30;16.92;;;7.07;;
78885;SDS011;68269;52.514;5.722;2023-05-07T13:14:00;18.23;;;7.32;;
78885;SDS011;68269;52.514;5.722;2023-05-07T13:16:29;17.20;;;7.35;;
78885;SDS011;68269;52.514;5.722;2023-05-07T13:18:58;17.83;;;8.18;;
78885;SDS011;68269;52.514;5.722;2023-05-07T13:21:28;17.55;;;7.28;;
78885;SDS011;68269;52.514;5.722;2023-05-07T13:24:01;14.90;;;6.78;;
78885;SDS011;68269;52.514;5.722;2023-05-07T13:26:31;17.42;;;7.25;;
78885;SDS011;68269;52.514;5.722;2023-05-07T13:29:00;18.08;;;7.50;;
78885;SDS011;68269;52.514;5.722;2023-05-07T13:31:29;17.55;;;7.18;;
78885;SDS011;68269;52.514;5.722;2023-05-07T13:33:59;15.68;;;6.68;;
78885;SDS011;68269;52.514;5.722;2023-05-07T13:36:28;14.73;;;6.07;;
78885;SDS011;68269;52.514;5.722;2023-05-07T13:39:03;13.25;;;5.20;;
78885;SDS011;68269;52.514;5.722;2023-05-07T13:41:33;16.48;;;5.85;;
78885;SDS011;68269;52.514;5.722;2023-05-07T13:44:02;15.90;;;7.18;;
78885;SDS011;68269;52.514;5.722;2023-05-07T13:46:31;19.50;;;8.45;;
78885;SDS011;68269;52.514;5.722;2023-05-07T13:49:01;14.95;;;6.72;;
78885;SDS011;68269;52.514;5.722;2023-05-07T13:51:30;16.00;;;6.90;;
78885;SDS011;68269;52.514;5.722;2023-05-07T13:53:59;14.18;;;5.82;;
78885;SDS011;68269;52.514;5.722;2023-05-07T13:56:32;17.00;;;6.25;;
78885;SDS011;68269;52.514;5.722;2023-05-07T13:59:01;16.63;;;5.70;;
78885;SDS011;68269;52.514;5.722;2023-05-07T14:01:30;13.38;;;5.53;;
78885;SDS011;68269;52.514;5.722;2023-05-07T14:04:00;13.23;;;5.32;;
78885;SDS011;68269;52.514;5.722;2023-05-07T14:06:29;15.60;;;6.15;;
78885;SDS011;68269;52.514;5.722;2023-05-07T14:08:58;13.30;;;5.45;;
78885;SDS011;68269;52.514;5.722;2023-05-07T14:11:30;12.05;;;5.45;;
78885;SDS011;68269;52.514;5.722;2023-05-07T14:13:59;15.18;;;5.90;;
78885;SDS011;68269;52.514;5.722;2023-05-07T14:16:29;14.07;;;6.07;;
78885;SDS011;68269;52.514;5.722;2023-05-07T14:18:58;14.77;;;6.50;;
78885;SDS011;68269;52.514;5.722;2023-05-07T14:21:27;13.15;;;5.32;;
78885;SDS011;68269;52.514;5.722;2023-05-07T14:23:56;11.90;;;5.43;;
78885;SDS011;68269;52.514;5.722;2023-05-07T14:26:26;12.63;;;4.78;;
78885;SDS011;68269;52.514;5.722;2023-05-07T14:28:58;14.02;;;5.13;;
78885;SDS011;68269;52.514;5.722;2023-05-07T14:31:28;14.98;;;6.00;;
78885;SDS011;68269;52.514;5.722;2023-05-07T14:33:58;11.98;;;4.25;;
78885;SDS011;68269;52.514;5.722;2023-05-07T14:36:28;11.73;;;4.55;;
78885;SDS011;68269;52.514;5.722;2023-05-07T14:38:57;15.75;;;5.53;;
78885;SDS011;68269;52.514;5.722;2023-05-07T14:41:28;14.85;;;6.53;;
78885;SDS011;68269;52.514;5.722;2023-05-07T14:44:01;14.40;;;5.45;;
78885;SDS011;68269;52.514;5.722;2023-05-07T14:46:30;14.13;;;5.90;;
78885;SDS011;68269;52.514;5.722;2023-05-07T14:49:00;16.08;;;6.50;;
78885;SDS011;68269;52.514;5.722;2023-05-07T14:51:30;15.02;;;6.13;;
78885;SDS011;68269;52.514;5.722;2023-05-07T14:54:01;15.40;;;6.25;;
78885;SDS011;68269;52.514;5.722;2023-05-07T14:56:30;12.90;;;5.45;;
78885;SDS011;68269;52.514;5.722;2023-05-07T14:59:02;14.15;;;5.97;;
78885;SDS011;68269;52.514;5.722;2023-05-07T15:01:31;15.25;;;5.95;;
78885;SDS011;68269;52.514;5.722;2023-05-07T15:04:00;15.52;;;6.53;;
78885;SDS011;68269;52.514;5.722;2023-05-07T15:06:31;15.07;;;6.78;;